Time,TemperatureF,DewpointF,PressureIn,WindDirection,WindDirectionDegrees,WindSpeedMPH,WindSpeedGustMPH,Humidity,HourlyPrecipIn,Conditions,Clouds,dailyrainin,SoftwareType,DateUTC
2014-04-20 00:01:00,46.0,39.5,30.19,NE,45,0.0,0.0,78,0.00,,,0.00,WUHU216HW,2014-04-20 07:01:00,
2014-04-20 00:06:00,45.6,39.2,30.18,NE,45,0.0,0.0,78,0.00,,,0.00,WUHU216HW,2014-04-20 07:06:00,
2014-04-20 00:11:00,45.5,39.0,30.19,ENE,68,0.0,0.0,78,0.00,,,0.00,WUHU216HW,2014-04-20 07:11:00,
2014-04-20 00:16:00,45.1,39.0,30.19,ENE,68,0.0,0.0,79,0.00,,,0.00,WUHU216HW,2014-04-20 07:16:00,
2014-04-20 00:21:00,44.9,38.8,30.19,ENE,68,0.0,0.0,79,0.00,,,0.00,WUHU216HW,2014-04-20 07:21:00,
2014-04-20 00:26:00,44.7,38.6,30.19,ENE,68,0.0,0.0,79,0.00,,,0.00,WUHU216HW,2014-04-20 07:26:00,
2014-04-20 00:31:00,44.4,38.3,30.19,ENE,68,0.0,0.0,79,0.00,,,0.00,WUHU216HW,2014-04-20 07:31:00,
2014-04-20 00:36:00,44.2,38.1,30.19,ENE,68,0.0,0.0,79,0.00,,,0.00,WUHU216HW,2014-04-20 07:36:00,
2014-04-20 00:41:00,44.0,37.9,30.19,ENE,68,0.0,0.0,79,0.00,,,0.00,WUHU216HW,2014-04-20 07:41:00,
2014-04-20 00:46:00,43.8,37.7,30.19,ENE,68,0.0,0.0,79,0.00,,,0.00,WUHU216HW,2014-04-20 07:46:00,
2014-04-20 00:51:00,43.7,37.5,30.19,ENE,68,0.0,0.0,79,0.00,,,0.00,WUHU216HW,2014-04-20 07:51:00,
2014-04-20 00:56:00,43.5,37.4,30.19,ENE,68,0.0,0.0,79,0.00,,,0.00,WUHU216HW,2014-04-20 07:56:00,
2014-04-20 01:01:00,43.3,37.2,30.20,ENE,68,0.0,0.0,79,0.00,,,0.00,WUHU216HW,2014-04-20 08:01:00,
2014-04-20 01:06:00,43.3,37.3,30.20,ENE,68,0.0,0.0,79,0.00,,,0.00,WUHU216HW,2014-04-20 08:06:00,
2014-04-20 01:11:00,43.1,37.4,30.20,ENE,68,0.0,0.0,80,0.00,,,0.00,WUHU216HW,2014-04-20 08:11:00,
2014-04-20 01:16:00,42.9,37.2,30.20,ENE,68,0.0,0.0,80,0.00,,,0.00,WUHU216HW,2014-04-20 08:16:00,
2014-04-20 01:21:00,42.9,37.2,30.20,ENE,68,0.0,0.0,80,0.00,,,0.00,WUHU216HW,2014-04-20 08:21:00,
2014-04-20 01:26:00,42.6,36.8,30.21,ENE,68,0.0,0.0,80,0.00,,,0.00,WUHU216HW,2014-04-20 08:26:00,
2014-04-20 01:31:00,42.6,36.8,30.21,ENE,68,0.0,0.0,80,0.00,,,0.00,WUHU216HW,2014-04-20 08:31:00,
2014-04-20 01:36:00,42.4,36.6,30.21,ENE,68,0.0,0.0,80,0.00,,,0.00,WUHU216HW,2014-04-20 08:36:00,
2014-04-20 01:41:00,42.2,36.5,30.21,ENE,68,0.0,0.0,80,0.00,,,0.00,WUHU216HW,2014-04-20 08:41:00,
2014-04-20 01:46:00,42.0,36.3,30.21,ENE,68,0.0,0.0,80,0.00,,,0.00,WUHU216HW,2014-04-20 08:46:00,
2014-04-20 01:51:00,41.9,36.1,30.21,ENE,68,0.0,0.0,80,0.00,,,0.00,WUHU216HW,2014-04-20 08:51:00,
2014-04-20 01:56:00,41.7,35.9,30.21,ENE,68,0.0,0.0,80,0.00,,,0.00,WUHU216HW,2014-04-20 08:56:00,
2014-04-20 02:01:00,41.5,36.0,30.21,ENE,68,0.0,0.0,81,0.00,,,0.00,WUHU216HW,2014-04-20 09:01:00,
2014-04-20 02:06:00,41.5,35.7,30.21,ENE,68,0.0,0.0,80,0.00,,,0.00,WUHU216HW,2014-04-20 09:06:00,
2014-04-20 02:11:00,41.3,35.6,30.21,ENE,68,0.0,0.0,80,0.00,,,0.00,WUHU216HW,2014-04-20 09:11:00,
2014-04-20 02:16:00,41.1,35.4,30.21,ENE,68,0.0,0.0,80,0.00,,,0.00,WUHU216HW,2014-04-20 09:16:00,
2014-04-20 02:21:00,41.1,35.4,30.21,ENE,68,0.0,0.0,80,0.00,,,0.00,WUHU216HW,2014-04-20 09:21:00,
2014-04-20 02:26:00,41.0,35.5,30.22,ENE,68,0.0,0.0,81,0.00,,,0.00,WUHU216HW,2014-04-20 09:26:00,
2014-04-20 02:31:00,40.8,35.3,30.22,ENE,68,0.0,0.0,81,0.00,,,0.00,WUHU216HW,2014-04-20 09:31:00,
2014-04-20 02:36:00,40.8,35.3,30.21,ENE,68,0.0,0.0,81,0.00,,,0.00,WUHU216HW,2014-04-20 09:36:00,
2014-04-20 02:41:00,40.8,35.3,30.21,ENE,68,0.0,0.0,81,0.00,,,0.00,WUHU216HW,2014-04-20 09:41:00,
2014-04-20 02:46:00,40.6,35.2,30.21,ENE,68,0.0,0.0,81,0.00,,,0.00,WUHU216HW,2014-04-20 09:46:00,
2014-04-20 02:51:00,40.6,35.2,30.21,ENE,68,0.0,0.0,81,0.00,,,0.00,WUHU216HW,2014-04-20 09:51:00,
2014-04-20 02:56:00,40.4,35.0,30.21,ENE,68,0.0,0.0,81,0.00,,,0.00,WUHU216HW,2014-04-20 09:56:00,
2014-04-20 03:01:00,40.4,35.0,30.21,ENE,68,0.0,0.0,81,0.00,,,0.00,WUHU216HW,2014-04-20 10:01:00,
2014-04-20 03:06:00,40.4,35.0,30.21,ENE,68,0.0,0.0,81,0.00,,,0.00,WUHU216HW,2014-04-20 10:06:00,
2014-04-20 03:11:00,40.2,34.8,30.21,ENE,68,0.0,0.0,81,0.00,,,0.00,WUHU216HW,2014-04-20 10:11:00,
2014-04-20 03:16:00,40.2,34.8,30.21,ENE,68,0.0,0.0,81,0.00,,,0.00,WUHU216HW,2014-04-20 10:16:00,
2014-04-20 03:21:00,40.1,34.7,30.21,ENE,68,0.0,0.0,81,0.00,,,0.00,WUHU216HW,2014-04-20 10:21:00,
2014-04-20 03:26:00,39.9,34.5,30.21,ENE,68,0.0,0.0,81,0.00,,,0.00,WUHU216HW,2014-04-20 10:26:00,
2014-04-20 03:31:00,39.9,34.5,30.21,ENE,68,0.0,0.0,81,0.00,,,0.00,WUHU216HW,2014-04-20 10:31:00,
2014-04-20 03:36:00,39.9,34.5,30.21,ENE,68,0.0,0.0,81,0.00,,,0.00,WUHU216HW,2014-04-20 10:36:00,
2014-04-20 03:41:00,39.9,34.8,30.22,ENE,68,0.0,0.0,82,0.00,,,0.00,WUHU216HW,2014-04-20 10:41:00,
2014-04-20 03:46:00,39.7,34.6,30.21,ENE,68,0.0,0.0,82,0.00,,,0.00,WUHU216HW,2014-04-20 10:46:00,
2014-04-20 03:51:00,39.5,34.5,30.22,ENE,68,0.0,0.0,82,0.00,,,0.00,WUHU216HW,2014-04-20 10:51:00,
2014-04-20 03:56:00,39.5,34.5,30.22,ENE,68,0.0,0.0,82,0.00,,,0.00,WUHU216HW,2014-04-20 10:56:00,
2014-04-20 04:01:00,39.3,34.3,30.22,ENE,68,0.0,0.0,82,0.00,,,0.00,WUHU216HW,2014-04-20 11:01:00,
2014-04-20 04:06:00,39.3,34.3,30.22,ENE,68,0.0,0.0,82,0.00,,,0.00,WUHU216HW,2014-04-20 11:06:00,
2014-04-20 04:11:00,39.3,34.3,30.22,ENE,68,0.0,0.0,82,0.00,,,0.00,WUHU216HW,2014-04-20 11:11:00,
2014-04-20 04:16:00,39.2,34.1,30.22,ENE,68,0.0,0.0,82,0.00,,,0.00,WUHU216HW,2014-04-20 11:16:00,
2014-04-20 04:21:00,39.0,34.0,30.22,ENE,68,0.0,0.0,82,0.00,,,0.00,WUHU216HW,2014-04-20 11:21:00,
2014-04-20 04:26:00,39.2,34.1,30.22,ENE,68,0.0,0.0,82,0.00,,,0.00,WUHU216HW,2014-04-20 11:26:00,
2014-04-20 04:31:00,39.2,34.1,30.22,ENE,68,0.0,0.0,82,0.00,,,0.00,WUHU216HW,2014-04-20 11:31:00,
2014-04-20 04:36:00,39.0,34.0,30.22,ENE,68,0.0,0.0,82,0.00,,,0.00,WUHU216HW,2014-04-20 11:36:00,
2014-04-20 04:41:00,39.0,34.0,30.22,ENE,68,0.0,0.0,82,0.00,,,0.00,WUHU216HW,2014-04-20 11:41:00,
2014-04-20 04:46:00,39.0,34.0,30.21,ENE,68,0.0,0.0,82,0.00,,,0.00,WUHU216HW,2014-04-20 11:46:00,
2014-04-20 04:51:00,38.8,33.8,30.22,ENE,68,0.0,0.0,82,0.00,,,0.00,WUHU216HW,2014-04-20 11:51:00,
2014-04-20 04:56:00,38.8,33.8,30.22,ENE,68,0.0,0.0,82,0.00,,,0.00,WUHU216HW,2014-04-20 11:56:00,
2014-04-20 05:01:00,38.8,33.8,30.22,ENE,68,0.0,0.0,82,0.00,,,0.00,WUHU216HW,2014-04-20 12:01:00,
2014-04-20 05:06:00,38.8,33.8,30.21,ENE,68,0.0,0.0,82,0.00,,,0.00,WUHU216HW,2014-04-20 12:06:00,
2014-04-20 05:11:00,38.8,33.8,30.21,ENE,68,0.0,0.0,82,0.00,,,0.00,WUHU216HW,2014-04-20 12:11:00,
2014-04-20 05:16:00,38.8,33.8,30.21,ENE,68,0.0,0.0,82,0.00,,,0.00,WUHU216HW,2014-04-20 12:16:00,
2014-04-20 05:21:00,38.6,34.1,30.21,ENE,68,0.0,0.0,83,0.00,,,0.00,WUHU216HW,2014-04-20 12:21:00,
2014-04-20 05:26:00,38.6,33.9,30.21,ENE,68,0.0,0.0,83,0.00,,,0.00,WUHU216HW,2014-04-20 12:26:00,
2014-04-20 05:31:00,38.4,33.7,30.21,ENE,68,0.0,0.0,83,0.00,,,0.00,WUHU216HW,2014-04-20 12:31:00,
2014-04-20 05:36:00,38.4,33.7,30.21,ENE,68,0.0,0.0,83,0.00,,,0.00,WUHU216HW,2014-04-20 12:36:00,
2014-04-20 05:41:00,38.4,33.7,30.22,ENE,68,0.0,0.0,83,0.00,,,0.00,WUHU216HW,2014-04-20 12:41:00,
2014-04-20 05:46:00,38.4,33.7,30.21,ENE,68,0.0,0.0,83,0.00,,,0.00,WUHU216HW,2014-04-20 12:46:00,
2014-04-20 05:51:00,38.4,33.7,30.21,ENE,68,0.0,0.0,83,0.00,,,0.00,WUHU216HW,2014-04-20 12:51:00,
2014-04-20 05:56:00,38.3,33.5,30.21,NE,45,0.0,0.0,83,0.00,,,0.00,WUHU216HW,2014-04-20 12:56:00,
2014-04-20 06:01:00,38.4,33.7,30.21,NE,45,0.0,0.0,83,0.00,,,0.00,WUHU216HW,2014-04-20 13:01:00,
2014-04-20 06:06:00,38.3,33.5,30.21,NE,45,0.0,0.0,83,0.00,,,0.00,WUHU216HW,2014-04-20 13:06:00,
2014-04-20 06:11:00,38.4,33.7,30.21,NE,45,0.0,0.0,83,0.00,,,0.00,WUHU216HW,2014-04-20 13:11:00,
2014-04-20 06:16:00,38.3,33.5,30.22,NE,45,0.0,0.0,83,0.00,,,0.00,WUHU216HW,2014-04-20 13:16:00,
2014-04-20 06:21:00,38.3,33.5,30.21,NE,45,0.0,0.0,83,0.00,,,0.00,WUHU216HW,2014-04-20 13:21:00,
2014-04-20 06:26:00,38.3,33.5,30.21,NE,45,0.0,0.0,83,0.00,,,0.00,WUHU216HW,2014-04-20 13:26:00,
2014-04-20 06:31:00,38.3,33.4,30.22,NE,45,0.0,0.0,83,0.00,,,0.00,WUHU216HW,2014-04-20 13:31:00,
2014-04-20 06:36:00,38.3,33.5,30.22,NE,45,0.0,0.0,83,0.00,,,0.00,WUHU216HW,2014-04-20 13:36:00,
2014-04-20 06:41:00,38.4,33.7,30.22,NE,45,0.0,0.0,83,0.00,,,0.00,WUHU216HW,2014-04-20 13:41:00,
2014-04-20 06:46:00,38.4,33.7,30.22,NE,45,0.0,0.0,83,0.00,,,0.00,WUHU216HW,2014-04-20 13:46:00,
2014-04-20 06:51:00,38.8,34.4,30.22,NE,45,0.0,0.0,84,0.00,,,0.00,WUHU216HW,2014-04-20 13:51:00,
2014-04-20 06:56:00,39.0,34.5,30.22,NE,45,0.0,0.0,84,0.00,,,0.00,WUHU216HW,2014-04-20 13:56:00,
2014-04-20 07:01:00,39.3,34.9,30.22,NE,45,0.0,0.0,84,0.00,,,0.00,WUHU216HW,2014-04-20 14:01:00,
2014-04-20 07:06:00,39.7,35.0,30.22,NE,45,0.0,0.0,84,0.00,,,0.00,WUHU216HW,2014-04-20 14:06:00,
2014-04-20 07:11:00,39.9,35.4,30.22,NE,45,0.0,0.0,84,0.00,,,0.00,WUHU216HW,2014-04-20 14:11:00,
2014-04-20 07:16:00,40.2,35.7,30.22,NE,45,0.0,0.0,84,0.00,,,0.00,WUHU216HW,2014-04-20 14:16:00,
2014-04-20 07:21:00,40.6,36.1,30.23,NE,45,0.0,0.0,84,0.00,,,0.00,WUHU216HW,2014-04-20 14:21:00,
2014-04-20 07:26:00,40.8,36.2,30.23,NE,45,0.0,0.0,84,0.00,,,0.00,WUHU216HW,2014-04-20 14:26:00,
2014-04-20 07:31:00,41.5,37.0,30.23,NE,45,0.0,0.0,84,0.00,,,0.00,WUHU216HW,2014-04-20 14:31:00,
2014-04-20 07:36:00,42.0,37.5,30.23,NE,45,0.0,0.0,84,0.00,,,0.00,WUHU216HW,2014-04-20 14:36:00,
2014-04-20 07:41:00,42.9,38.4,30.23,NE,45,0.0,0.0,84,0.00,,,0.00,WUHU216HW,2014-04-20 14:41:00,
2014-04-20 07:46:00,43.5,38.9,30.23,NE,45,0.0,0.0,84,0.00,,,0.00,WUHU216HW,2014-04-20 14:46:00,
2014-04-20 07:51:00,44.2,39.8,30.23,NE,45,0.0,0.0,85,0.00,,,0.00,WUHU216HW,2014-04-20 14:51:00,
2014-04-20 07:56:00,44.9,40.2,30.23,NE,45,0.0,0.0,84,0.00,,,0.00,WUHU216HW,2014-04-20 14:56:00,
2014-04-20 08:01:00,45.3,40.9,30.23,NE,45,0.0,0.0,84,0.00,,,0.00,WUHU216HW,2014-04-20 15:01:00,
2014-04-20 08:06:00,46.2,41.6,30.23,NE,45,0.0,0.0,84,0.00,,,0.00,WUHU216HW,2014-04-20 15:06:00,
2014-04-20 08:11:00,46.9,42.0,30.23,NE,45,0.0,0.0,83,0.00,,,0.00,WUHU216HW,2014-04-20 15:11:00,
2014-04-20 08:16:00,47.6,42.7,30.22,NE,45,0.0,0.0,83,0.00,,,0.00,WUHU216HW,2014-04-20 15:16:00,
2014-04-20 08:21:00,48.3,43.0,30.22,NNE,23,0.0,0.0,82,0.00,,,0.00,WUHU216HW,2014-04-20 15:21:00,
2014-04-20 08:26:00,49.1,43.2,30.22,NNE,23,0.0,0.0,81,0.00,,,0.00,WUHU216HW,2014-04-20 15:26:00,
2014-04-20 08:31:00,49.6,44.1,30.22,West,270,0.0,0.0,81,0.00,,,0.00,WUHU216HW,2014-04-20 15:31:00,
2014-04-20 08:36:00,50.5,44.6,30.23,West,270,0.0,0.0,80,0.00,,,0.00,WUHU216HW,2014-04-20 15:36:00,
2014-04-20 08:41:00,51.4,44.9,30.23,West,270,0.0,0.0,79,0.00,,,0.00,WUHU216HW,2014-04-20 15:41:00,
2014-04-20 08:46:00,52.1,45.5,30.23,West,270,0.0,0.0,78,0.00,,,0.00,WUHU216HW,2014-04-20 15:46:00,
2014-04-20 08:51:00,52.7,45.6,30.23,West,270,0.0,0.0,77,0.00,,,0.00,WUHU216HW,2014-04-20 15:51:00,
2014-04-20 08:56:00,53.2,45.8,30.22,West,270,0.0,0.0,76,0.00,,,0.00,WUHU216HW,2014-04-20 15:56:00,
2014-04-20 09:01:00,53.7,46.3,30.22,WSW,248,0.0,0.0,76,0.00,,,0.00,WUHU216HW,2014-04-20 16:01:00,
2014-04-20 09:06:00,54.3,46.5,30.22,SSE,158,0.0,0.0,75,0.00,,,0.00,WUHU216HW,2014-04-20 16:06:00,
2014-04-20 09:11:00,54.8,47.0,30.22,SSW,203,0.0,0.0,75,0.00,,,0.00,WUHU216HW,2014-04-20 16:11:00,
2014-04-20 09:16:00,55.2,46.7,30.21,SSW,203,0.0,0.0,73,0.00,,,0.00,WUHU216HW,2014-04-20 16:16:00,
2014-04-20 09:21:00,55.9,47.0,30.21,West,270,0.0,0.0,72,0.00,,,0.00,WUHU216HW,2014-04-20 16:21:00,
2014-04-20 09:26:00,56.1,47.1,30.21,West,270,0.0,0.0,72,0.00,,,0.00,WUHU216HW,2014-04-20 16:26:00,
2014-04-20 09:31:00,56.4,47.0,30.22,SSE,158,0.0,0.0,71,0.00,,,0.00,WUHU216HW,2014-04-20 16:31:00,
2014-04-20 09:36:00,57.0,47.1,30.22,SSW,203,0.0,0.0,71,0.00,,,0.00,WUHU216HW,2014-04-20 16:36:00,
2014-04-20 09:41:00,57.0,47.3,30.21,SE,135,0.0,0.0,70,0.00,,,0.00,WUHU216HW,2014-04-20 16:41:00,
2014-04-20 09:46:00,57.5,47.4,30.21,SSE,158,0.0,0.0,69,0.00,,,0.00,WUHU216HW,2014-04-20 16:46:00,
2014-04-20 09:51:00,57.9,47.7,30.21,SW,225,0.0,0.0,69,0.00,,,0.00,WUHU216HW,2014-04-20 16:51:00,
2014-04-20 09:56:00,58.6,48.0,30.21,SSW,203,0.0,0.0,68,0.00,,,0.00,WUHU216HW,2014-04-20 16:56:00,
2014-04-20 10:01:00,59.0,48.4,30.21,SE,135,0.0,2.9,68,0.00,,,0.00,WUHU216HW,2014-04-20 17:01:00,
2014-04-20 10:06:00,59.5,48.1,30.21,SW,225,0.0,3.3,66,0.00,,,0.00,WUHU216HW,2014-04-20 17:06:00,
2014-04-20 10:11:00,59.9,48.5,30.21,West,270,1.3,3.3,66,0.00,,,0.00,WUHU216HW,2014-04-20 17:11:00,
2014-04-20 10:16:00,60.4,49.0,30.21,WSW,248,0.2,5.1,66,0.00,,,0.00,WUHU216HW,2014-04-20 17:16:00,
2014-04-20 10:21:00,60.6,48.4,30.21,South,180,0.0,5.1,64,0.00,,,0.00,WUHU216HW,2014-04-20 17:21:00,
2014-04-20 10:26:00,60.8,48.5,30.21,SSE,158,3.5,3.5,64,0.00,,,0.00,WUHU216HW,2014-04-20 17:26:00,
2014-04-20 10:31:00,61.3,49.0,30.20,SSW,203,4.9,4.9,64,0.00,,,0.00,WUHU216HW,2014-04-20 17:31:00,
2014-04-20 10:36:00,61.8,49.5,30.20,SSW,203,0.0,4.9,64,0.00,,,0.00,WUHU216HW,2014-04-20 17:36:00,
2014-04-20 10:41:00,62.2,49.6,30.20,SSE,158,2.0,5.3,63,0.00,,,0.00,WUHU216HW,2014-04-20 17:41:00,
2014-04-20 10:46:00,62.7,49.5,30.20,South,180,2.2,5.3,62,0.00,,,0.00,WUHU216HW,2014-04-20 17:46:00,
2014-04-20 10:51:00,63.1,49.8,30.20,SSE,158,3.1,3.3,62,0.00,,,0.00,WUHU216HW,2014-04-20 17:51:00,
2014-04-20 10:56:00,63.1,49.4,30.20,SE,135,0.0,3.1,61,0.00,,,0.00,WUHU216HW,2014-04-20 17:56:00,
2014-04-20 11:01:00,63.3,49.6,30.20,WSW,248,3.5,7.6,61,0.00,,,0.00,WUHU216HW,2014-04-20 18:01:00,
2014-04-20 11:06:00,63.5,49.3,30.20,West,270,0.0,7.6,60,0.00,,,0.00,WUHU216HW,2014-04-20 18:06:00,
2014-04-20 11:11:00,63.6,49.5,30.20,SE,135,3.5,5.8,60,0.00,,,0.00,WUHU216HW,2014-04-20 18:11:00,
2014-04-20 11:16:00,64.2,50.0,30.20,SSW,203,2.2,5.8,60,0.00,,,0.00,WUHU216HW,2014-04-20 18:16:00,
2014-04-20 11:21:00,64.5,49.3,30.19,West,270,2.6,3.5,58,0.00,,,0.00,WUHU216HW,2014-04-20 18:21:00,
2014-04-20 11:26:00,64.7,49.5,30.19,WSW,248,1.5,4.9,58,0.00,,,0.00,WUHU216HW,2014-04-20 18:26:00,
2014-04-20 11:31:00,64.5,49.3,30.19,WSW,248,0.0,8.7,58,0.00,,,0.00,WUHU216HW,2014-04-20 18:31:00,
2014-04-20 11:36:00,64.9,49.7,30.19,SSW,203,5.8,8.7,58,0.00,,,0.00,WUHU216HW,2014-04-20 18:36:00,
2014-04-20 11:41:00,65.1,49.4,30.19,WSW,248,2.9,7.3,57,0.00,,,0.00,WUHU216HW,2014-04-20 18:41:00,
2014-04-20 11:46:00,65.1,48.9,30.19,West,270,2.4,5.3,56,0.00,,,0.00,WUHU216HW,2014-04-20 18:46:00,
2014-04-20 11:51:00,65.6,49.4,30.19,SSE,158,4.0,6.4,56,0.00,,,0.00,WUHU216HW,2014-04-20 18:51:00,
2014-04-20 11:56:00,66.0,49.3,30.19,NNW,338,1.7,6.4,55,0.00,,,0.00,WUHU216HW,2014-04-20 18:56:00,
2014-04-20 12:01:00,66.0,49.3,30.19,SSE,158,7.6,7.6,55,0.00,,,0.00,WUHU216HW,2014-04-20 19:01:00,
2014-04-20 12:06:00,66.2,49.5,30.19,SSE,158,4.6,8.5,55,0.00,,,0.00,WUHU216HW,2014-04-20 19:06:00,
2014-04-20 12:11:00,66.3,49.2,30.19,West,270,0.0,8.5,54,0.00,,,0.00,WUHU216HW,2014-04-20 19:11:00,
2014-04-20 12:16:00,66.9,50.1,30.19,West,270,3.1,5.3,55,0.00,,,0.00,WUHU216HW,2014-04-20 19:16:00,
2014-04-20 12:17:00,66.9,50.1,30.19,SW,225,2.2,5.3,55,0.00,,,0.00,WUHU216HW,2014-04-20 19:17:00,
2014-04-20 12:22:00,66.9,49.2,30.18,SSW,203,4.9,5.8,53,0.00,,,0.00,WUHU216HW,2014-04-20 19:22:00,
2014-04-20 12:27:00,67.1,49.3,30.18,SW,225,7.3,7.3,53,0.00,,,0.00,WUHU216HW,2014-04-20 19:27:00,
2014-04-20 12:32:00,67.2,49.0,30.18,SSW,203,7.8,7.8,52,0.00,,,0.00,WUHU216HW,2014-04-20 19:32:00,
2014-04-20 12:37:00,67.6,49.3,30.17,South,180,5.8,7.8,52,0.00,,,0.00,WUHU216HW,2014-04-20 19:37:00,
2014-04-20 12:42:00,67.6,48.9,30.17,SSW,203,7.1,12.7,51,0.00,,,0.00,WUHU216HW,2014-04-20 19:42:00,
2014-04-20 12:47:00,67.2,48.5,30.17,SSE,158,6.4,12.7,51,0.00,,,0.00,WUHU216HW,2014-04-20 19:47:00,
2014-04-20 12:52:00,67.6,48.9,30.17,WSW,248,0.0,8.9,51,0.00,,,0.00,WUHU216HW,2014-04-20 19:52:00,
2014-04-20 12:57:00,67.8,48.4,30.17,SSE,158,7.6,8.9,50,0.00,,,0.00,WUHU216HW,2014-04-20 19:57:00,
2014-04-20 13:02:00,67.6,48.4,30.17,West,270,4.9,7.6,50,0.00,,,0.00,WUHU216HW,2014-04-20 20:02:00,
2014-04-20 13:07:00,67.6,48.4,30.17,SSE,158,4.9,6.0,50,0.00,,,0.00,WUHU216HW,2014-04-20 20:07:00,
2014-04-20 13:12:00,67.8,48.5,30.16,SE,135,6.7,6.7,50,0.00,,,0.00,WUHU216HW,2014-04-20 20:12:00,
2014-04-20 13:17:00,67.4,48.2,30.16,West,270,0.0,6.7,50,0.00,,,0.00,WUHU216HW,2014-04-20 20:17:00,
2014-04-20 13:22:00,67.2,48.0,30.16,South,180,0.0,5.1,50,0.00,,,0.00,WUHU216HW,2014-04-20 20:22:00,
2014-04-20 13:27:00,67.6,48.4,30.15,SSW,203,5.1,8.0,50,0.00,,,0.00,WUHU216HW,2014-04-20 20:27:00,
2014-04-20 13:32:00,67.6,48.4,30.15,SE,135,1.5,8.0,50,0.00,,,0.00,WUHU216HW,2014-04-20 20:32:00,
2014-04-20 13:37:00,67.2,48.0,30.15,SW,225,3.8,6.9,50,0.00,,,0.00,WUHU216HW,2014-04-20 20:37:00,
2014-04-20 13:42:00,67.6,48.4,30.15,WSW,248,4.6,6.9,50,0.00,,,0.00,WUHU216HW,2014-04-20 20:42:00,
2014-04-20 13:47:00,67.6,48.4,30.16,SW,225,0.0,4.6,50,0.00,,,0.00,WUHU216HW,2014-04-20 20:47:00,
2014-04-20 13:52:00,67.8,48.5,30.15,SW,225,4.4,4.4,50,0.00,,,0.00,WUHU216HW,2014-04-20 20:52:00,
2014-04-20 13:57:00,67.8,48.5,30.15,SW,225,0.0,4.4,50,0.00,,,0.00,WUHU216HW,2014-04-20 20:57:00,
2014-04-20 14:02:00,68.1,48.9,30.15,South,180,1.7,4.2,50,0.00,,,0.00,WUHU216HW,2014-04-20 21:02:00,
2014-04-20 14:07:00,68.1,48.9,30.15,SE,135,3.1,5.8,50,0.00,,,0.00,WUHU216HW,2014-04-20 21:07:00,
2014-04-20 14:12:00,68.3,49.0,30.14,SW,225,0.0,5.8,50,0.00,,,0.00,WUHU216HW,2014-04-20 21:12:00,
2014-04-20 14:17:00,68.7,49.2,30.14,West,270,1.1,6.4,50,0.00,,,0.00,WUHU216HW,2014-04-20 21:17:00,
2014-04-20 14:22:00,68.7,48.7,30.14,SSE,158,4.2,6.4,49,0.00,,,0.00,WUHU216HW,2014-04-20 21:22:00,
2014-04-20 14:27:00,68.3,48.4,30.14,ESE,113,3.1,6.4,49,0.00,,,0.00,WUHU216HW,2014-04-20 21:27:00,
2014-04-20 14:32:00,68.1,48.3,30.14,SSW,203,2.0,6.4,49,0.00,,,0.00,WUHU216HW,2014-04-20 21:32:00,
2014-04-20 14:37:00,68.3,48.4,30.14,WSW,248,4.0,5.5,49,0.00,,,0.00,WUHU216HW,2014-04-20 21:37:00,
2014-04-20 14:42:00,68.3,48.4,30.14,SSW,203,3.3,6.0,49,0.00,,,0.00,WUHU216HW,2014-04-20 21:42:00,
2014-04-20 14:47:00,68.5,48.6,30.14,SW,225,0.0,6.0,49,0.00,,,0.00,WUHU216HW,2014-04-20 21:47:00,
2014-04-20 14:52:00,68.5,48.6,30.14,SSW,203,5.5,5.5,49,0.00,,,0.00,WUHU216HW,2014-04-20 21:52:00,
2014-04-20 14:57:00,68.7,48.7,30.13,SSW,203,1.1,5.5,49,0.00,,,0.00,WUHU216HW,2014-04-20 21:57:00,
2014-04-20 15:02:00,69.0,49.1,30.13,SSE,158,0.0,5.3,49,0.00,,,0.00,WUHU216HW,2014-04-20 22:02:00,
2014-04-20 15:07:00,69.0,48.5,30.12,SE,135,4.0,6.0,48,0.00,,,0.00,WUHU216HW,2014-04-20 22:07:00,
2014-04-20 15:12:00,68.7,48.2,30.12,SSW,203,2.2,6.0,48,0.00,,,0.00,WUHU216HW,2014-04-20 22:12:00,
2014-04-20 15:17:00,68.7,47.6,30.12,South,180,0.0,3.1,47,0.00,,,0.00,WUHU216HW,2014-04-20 22:17:00,
2014-04-20 15:22:00,68.3,47.8,30.12,SW,225,0.0,3.5,48,0.00,,,0.00,WUHU216HW,2014-04-20 22:22:00,
2014-04-20 15:27:00,68.3,47.8,30.11,SSE,158,0.0,5.1,48,0.00,,,0.00,WUHU216HW,2014-04-20 22:27:00,
2014-04-20 15:32:00,68.0,46.9,30.11,SW,225,0.0,5.1,47,0.00,,,0.00,WUHU216HW,2014-04-20 22:32:00,
2014-04-20 15:37:00,68.1,47.7,30.11,ENE,68,0.0,3.5,48,0.00,,,0.00,WUHU216HW,2014-04-20 22:37:00,
2014-04-20 15:42:00,68.5,48.0,30.11,SSE,158,4.9,4.9,48,0.00,,,0.00,WUHU216HW,2014-04-20 22:42:00,
2014-04-20 15:47:00,68.7,48.2,30.11,ESE,113,0.0,4.9,48,0.00,,,0.00,WUHU216HW,2014-04-20 22:47:00,
2014-04-20 15:52:00,68.7,48.2,30.11,SSE,158,2.9,4.6,48,0.00,,,0.00,WUHU216HW,2014-04-20 22:52:00,
2014-04-20 15:57:00,68.7,48.2,30.11,WSW,248,4.0,4.0,48,0.00,,,0.00,WUHU216HW,2014-04-20 22:57:00,
2014-04-20 16:02:00,69.0,48.5,30.11,South,180,3.1,4.0,48,0.00,,,0.00,WUHU216HW,2014-04-20 23:02:00,
2014-04-20 16:07:00,69.4,48.8,30.11,SSW,203,0.0,3.8,48,0.00,,,0.00,WUHU216HW,2014-04-20 23:07:00,
2014-04-20 16:12:00,69.6,48.4,30.11,SSW,203,0.0,0.0,47,0.00,,,0.00,WUHU216HW,2014-04-20 23:12:00,
2014-04-20 16:17:00,69.6,48.4,30.11,SSE,158,0.0,4.2,47,0.00,,,0.00,WUHU216HW,2014-04-20 23:17:00,
2014-04-20 16:22:00,69.6,48.4,30.11,West,270,2.9,4.2,47,0.00,,,0.00,WUHU216HW,2014-04-20 23:22:00,
2014-04-20 16:27:00,69.2,48.0,30.10,SSW,203,4.9,5.3,47,0.00,,,0.00,WUHU216HW,2014-04-20 23:27:00,
2014-04-20 16:32:00,68.7,47.6,30.10,West,270,2.4,5.3,47,0.00,,,0.00,WUHU216HW,2014-04-20 23:32:00,
2014-04-20 16:37:00,68.7,47.6,30.10,West,270,1.5,3.3,47,0.00,,,0.00,WUHU216HW,2014-04-20 23:37:00,
2014-04-20 16:42:00,68.5,48.0,30.10,SW,225,0.0,2.9,48,0.00,,,0.00,WUHU216HW,2014-04-20 23:42:00,
2014-04-20 16:47:00,68.3,47.8,30.09,SSW,203,4.4,4.4,48,0.00,,,0.00,WUHU216HW,2014-04-20 23:47:00,
2014-04-20 16:52:00,67.8,47.7,30.09,SSW,203,0.0,4.4,48,0.00,,,0.00,WUHU216HW,2014-04-20 23:52:00,
2014-04-20 16:57:00,67.6,47.2,30.09,SW,225,0.0,3.5,48,0.00,,,0.00,WUHU216HW,2014-04-20 23:57:00,
2014-04-20 17:02:00,67.4,47.0,30.09,WSW,248,3.3,3.5,48,0.00,,,0.00,WUHU216HW,2014-04-21 00:02:00,
2014-04-20 17:07:00,67.2,46.9,30.09,WSW,248,2.4,3.3,48,0.00,,,0.00,WUHU216HW,2014-04-21 00:07:00,
2014-04-20 17:12:00,66.9,46.5,30.08,West,270,0.0,2.4,48,0.00,,,0.00,WUHU216HW,2014-04-21 00:12:00,
2014-04-20 17:17:00,66.7,46.4,30.08,WNW,293,0.0,2.2,48,0.00,,,0.00,WUHU216HW,2014-04-21 00:17:00,
2014-04-20 17:22:00,66.5,46.2,30.08,NNW,338,0.0,0.0,48,0.00,,,0.00,WUHU216HW,2014-04-21 00:22:00,
2014-04-20 17:27:00,66.3,46.0,30.09,WSW,248,0.0,0.0,48,0.00,,,0.00,WUHU216HW,2014-04-21 00:27:00,
2014-04-20 17:32:00,66.3,46.0,30.08,North,0,0.0,0.0,49,0.00,,,0.00,WUHU216HW,2014-04-21 00:32:00,
2014-04-20 17:37:00,66.2,45.9,30.08,NNW,338,0.0,0.0,48,0.00,,,0.00,WUHU216HW,2014-04-21 00:37:00,
2014-04-20 17:42:00,66.0,46.3,30.09,West,270,0.0,0.0,49,0.00,,,0.00,WUHU216HW,2014-04-21 00:42:00,
2014-04-20 17:47:00,65.8,46.1,30.08,SW,225,0.0,0.0,49,0.00,,,0.00,WUHU216HW,2014-04-21 00:47:00,
2014-04-20 17:52:00,66.0,46.3,30.08,West,270,0.0,2.9,49,0.00,,,0.00,WUHU216HW,2014-04-21 00:52:00,
2014-04-20 17:57:00,66.0,45.7,30.08,WSW,248,0.0,2.9,48,0.00,,,0.00,WUHU216HW,2014-04-21 00:57:00,
2014-04-20 18:02:00,66.0,46.3,30.08,South,180,0.0,0.0,49,0.00,,,0.00,WUHU216HW,2014-04-21 01:02:00,
2014-04-20 18:07:00,66.0,45.7,30.08,South,180,0.0,0.0,48,0.00,,,0.00,WUHU216HW,2014-04-21 01:07:00,
2014-04-20 18:12:00,65.8,46.1,30.08,ESE,113,0.0,0.0,49,0.00,,,0.00,WUHU216HW,2014-04-21 01:12:00,
2014-04-20 18:17:00,65.4,45.2,30.08,SE,135,0.0,0.0,48,0.00,,,0.00,WUHU216HW,2014-04-21 01:17:00,
2014-04-20 18:22:00,65.1,45.4,30.07,SSE,158,0.0,0.0,49,0.00,,,0.00,WUHU216HW,2014-04-21 01:22:00,
2014-04-20 18:27:00,64.9,45.8,30.07,SSE,158,0.0,0.0,50,0.00,,,0.00,WUHU216HW,2014-04-21 01:27:00,
2014-04-20 18:32:00,64.7,45.6,30.07,SE,135,0.0,0.0,50,0.00,,,0.00,WUHU216HW,2014-04-21 01:32:00,
2014-04-20 18:37:00,64.7,45.6,30.07,SE,135,0.0,0.0,50,0.00,,,0.00,WUHU216HW,2014-04-21 01:37:00,
2014-04-20 18:42:00,64.7,45.6,30.07,SE,135,0.0,0.0,50,0.00,,,0.00,WUHU216HW,2014-04-21 01:42:00,
2014-04-20 18:47:00,64.9,45.8,30.07,SE,135,0.0,0.0,50,0.00,,,0.00,WUHU216HW,2014-04-21 01:47:00,
2014-04-20 18:52:00,64.9,46.3,30.06,SE,135,0.0,0.0,51,0.00,,,0.00,WUHU216HW,2014-04-21 01:52:00,
2014-04-20 18:57:00,65.1,46.0,30.06,ESE,113,0.0,0.0,50,0.00,,,0.00,WUHU216HW,2014-04-21 01:57:00,
2014-04-20 19:02:00,64.7,45.6,30.06,ENE,68,0.0,0.0,50,0.00,,,0.00,WUHU216HW,2014-04-21 02:02:00,
2014-04-20 19:07:00,64.4,45.8,30.06,ENE,68,0.0,0.0,51,0.00,,,0.00,WUHU216HW,2014-04-21 02:07:00,
2014-04-20 19:12:00,64.0,45.9,30.06,ENE,68,0.0,0.0,52,0.00,,,0.00,WUHU216HW,2014-04-21 02:12:00,
2014-04-20 19:17:00,63.6,46.1,30.06,ENE,68,0.0,0.0,53,0.00,,,0.00,WUHU216HW,2014-04-21 02:17:00,
2014-04-20 19:22:00,63.5,45.9,30.06,ENE,68,0.0,0.0,53,0.00,,,0.00,WUHU216HW,2014-04-21 02:22:00,
2014-04-20 19:27:00,63.3,45.8,30.06,ENE,68,0.0,0.0,53,0.00,,,0.00,WUHU216HW,2014-04-21 02:27:00,
2014-04-20 19:32:00,62.7,45.8,30.06,ESE,113,0.0,0.0,54,0.00,,,0.00,WUHU216HW,2014-04-21 02:32:00,
2014-04-20 19:37:00,62.6,45.6,30.06,ESE,113,0.0,0.0,54,0.00,,,0.00,WUHU216HW,2014-04-21 02:37:00,
2014-04-20 19:42:00,62.7,45.8,30.06,ESE,113,0.0,0.0,54,0.00,,,0.00,WUHU216HW,2014-04-21 02:42:00,
2014-04-20 19:47:00,62.6,45.6,30.06,ESE,113,0.0,0.0,54,0.00,,,0.00,WUHU216HW,2014-04-21 02:47:00,
2014-04-20 19:52:00,62.2,45.3,30.06,ESE,113,0.0,0.0,54,0.00,,,0.00,WUHU216HW,2014-04-21 02:52:00,
2014-04-20 19:57:00,61.5,44.6,30.06,ESE,113,0.0,0.0,54,0.00,,,0.00,WUHU216HW,2014-04-21 02:57:00,
2014-04-20 20:02:00,60.9,44.6,30.06,ESE,113,0.0,0.0,55,0.00,,,0.00,WUHU216HW,2014-04-21 03:02:00,
2014-04-20 20:07:00,60.4,44.3,30.06,ESE,113,0.0,0.0,55,0.00,,,0.00,WUHU216HW,2014-04-21 03:07:00,
2014-04-20 20:12:00,60.0,44.2,30.06,ESE,113,0.0,0.0,56,0.00,,,0.00,WUHU216HW,2014-04-21 03:12:00,
2014-04-20 20:17:00,59.5,43.7,30.06,ESE,113,0.0,0.0,56,0.00,,,0.00,WUHU216HW,2014-04-21 03:17:00,
2014-04-20 20:22:00,59.1,43.8,30.06,ESE,113,0.0,0.0,57,0.00,,,0.00,WUHU216HW,2014-04-21 03:22:00,
2014-04-20 20:27:00,58.8,44.0,30.06,ESE,113,0.0,0.0,58,0.00,,,0.00,WUHU216HW,2014-04-21 03:27:00,
2014-04-20 20:32:00,58.6,43.8,30.07,ESE,113,0.0,0.0,58,0.00,,,0.00,WUHU216HW,2014-04-21 03:32:00,
2014-04-20 20:37:00,57.9,43.8,30.07,SW,225,0.0,0.0,59,0.00,,,0.00,WUHU216HW,2014-04-21 03:37:00,
2014-04-20 20:42:00,57.7,44.0,30.07,WSW,248,0.0,0.0,60,0.00,,,0.00,WUHU216HW,2014-04-21 03:42:00,
2014-04-20 20:47:00,57.5,44.0,30.07,WSW,248,0.0,0.0,60,0.00,,,0.00,WUHU216HW,2014-04-21 03:47:00,
2014-04-20 20:52:00,57.5,44.2,30.07,WSW,248,0.0,0.0,61,0.00,,,0.00,WUHU216HW,2014-04-21 03:52:00,
2014-04-20 20:57:00,57.3,44.4,30.07,SE,135,0.0,0.0,62,0.00,,,0.00,WUHU216HW,2014-04-21 03:57:00,
2014-04-20 21:01:00,57.0,44.5,30.07,ESE,113,0.0,0.0,63,0.00,,,0.00,WUHU216HW,2014-04-21 04:01:00,
2014-04-20 21:02:00,57.0,44.1,30.07,ESE,113,0.0,0.0,62,0.00,,,0.00,WUHU216HW,2014-04-21 04:02:00,
2014-04-20 21:07:00,56.8,44.3,30.07,ESE,113,0.0,0.0,63,0.00,,,0.00,WUHU216HW,2014-04-21 04:07:00,
2014-04-20 21:12:00,56.4,44.4,30.07,ESE,113,0.0,0.0,64,0.00,,,0.00,WUHU216HW,2014-04-21 04:12:00,
2014-04-20 21:17:00,56.1,44.0,30.07,ESE,113,0.0,0.0,64,0.00,,,0.00,WUHU216HW,2014-04-21 04:17:00,